Baileyville, Maine
Current Conditions -  °F | °C
As of 10:00 AM on Sunday 21 Dec 2014 (Local Time) from CYFC Reporting Station
Overcast Overcast  
Wind Chill: 20°   Ceiling: 2700
Heat Index: 27°   Visibility: 9mi
Dew Point: 23°   Wind: 6mph
Humidity: 86%   Direction: 70°ENE
Pressure: 30.41"   Gusts: NA
Location:  45.15°N, 67.41°W
Report Text: CYFC 211500Z AUTO 07005KT 9SM OVC027 M03/M05 A3041 RMK SLP298
Loading
Personal Weather Stations






























Interactive Weather Map New forecast layout! Learn more

10-Day Weather Forecast

Advertisements
Track Severe Weather on mobile